sensor_id;sensor_type;location;lat;lon;timestamp;pressure;altitude;pressure_sealevel;temperature;humidity
74230;BME280;62589;12.568;99.958;2022-12-18T00:02:11;101141.09;;;30.61;40.36
74230;BME280;62589;12.568;99.958;2022-12-18T00:04:37;101146.19;;;30.59;40.57
74230;BME280;62589;12.568;99.958;2022-12-18T00:07:03;101149.81;;;30.43;41.05
74230;BME280;62589;12.568;99.958;2022-12-18T00:09:30;101159.25;;;30.58;41.00
74230;BME280;62589;12.568;99.958;2022-12-18T00:11:56;101156.19;;;30.63;40.57
74230;BME280;62589;12.568;99.958;2022-12-18T00:14:23;101175.16;;;30.61;40.66
74230;BME280;62589;12.568;99.958;2022-12-18T00:16:49;101174.34;;;30.61;40.30
74230;BME280;62589;12.568;99.958;2022-12-18T00:19:15;101183.84;;;30.60;39.77
74230;BME280;62589;12.568;99.958;2022-12-18T00:21:43;101176.53;;;30.52;39.20
74230;BME280;62589;12.568;99.958;2022-12-18T00:24:10;101174.47;;;30.49;39.30
74230;BME280;62589;12.568;99.958;2022-12-18T00:26:38;101188.31;;;30.49;39.63
74230;BME280;62589;12.568;99.958;2022-12-18T00:29:10;101190.28;;;30.48;40.25
74230;BME280;62589;12.568;99.958;2022-12-18T00:31:40;101197.00;;;30.47;39.50
74230;BME280;62589;12.568;99.958;2022-12-18T00:34:08;101205.59;;;30.42;39.21
74230;BME280;62589;12.568;99.958;2022-12-18T00:36:35;101216.31;;;30.43;39.92
74230;BME280;62589;12.568;99.958;2022-12-18T00:39:05;101216.31;;;30.43;39.71
74230;BME280;62589;12.568;99.958;2022-12-18T00:41:31;101219.97;;;30.48;39.52
74230;BME280;62589;12.568;99.958;2022-12-18T00:44:12;101239.19;;;30.56;39.45
74230;BME280;62589;12.568;99.958;2022-12-18T00:46:39;101231.66;;;30.57;38.76
74230;BME280;62589;12.568;99.958;2022-12-18T00:49:06;101233.44;;;30.65;39.01
74230;BME280;62589;12.568;99.958;2022-12-18T00:51:32;101230.69;;;30.65;39.75
74230;BME280;62589;12.568;99.958;2022-12-18T00:53:59;101253.91;;;30.76;39.83
74230;BME280;62589;12.568;99.958;2022-12-18T00:56:26;101244.13;;;30.82;39.18
74230;BME280;62589;12.568;99.958;2022-12-18T00:58:52;101246.16;;;30.85;38.33
74230;BME280;62589;12.568;99.958;2022-12-18T01:01:19;101253.84;;;30.92;38.15
74230;BME280;62589;12.568;99.958;2022-12-18T01:03:45;101277.63;;;30.93;38.48
74230;BME280;62589;12.568;99.958;2022-12-18T01:06:14;101259.41;;;30.92;38.98
74230;BME280;62589;12.568;99.958;2022-12-18T01:08:40;101267.22;;;31.05;39.01
74230;BME280;62589;12.568;99.958;2022-12-18T01:11:10;101268.38;;;31.04;38.46
74230;BME280;62589;12.568;99.958;2022-12-18T01:13:38;101289.38;;;31.05;38.46
74230;BME280;62589;12.568;99.958;2022-12-18T01:16:05;101282.97;;;31.01;38.61
74230;BME280;62589;12.568;99.958;2022-12-18T01:18:31;101287.69;;;31.01;38.64
74230;BME280;62589;12.568;99.958;2022-12-18T01:20:58;101296.75;;;30.98;38.06
74230;BME280;62589;12.568;99.958;2022-12-18T01:23:26;101300.19;;;30.91;37.85
74230;BME280;62589;12.568;99.958;2022-12-18T01:25:52;101300.19;;;30.91;38.44
74230;BME280;62589;12.568;99.958;2022-12-18T01:28:19;101296.97;;;30.89;38.81
74230;BME280;62589;12.568;99.958;2022-12-18T01:30:45;101308.78;;;30.86;39.09
74230;BME280;62589;12.568;99.958;2022-12-18T01:33:11;101306.28;;;30.81;38.58
74230;BME280;62589;12.568;99.958;2022-12-18T01:35:42;101320.13;;;30.81;37.26
74230;BME280;62589;12.568;99.958;2022-12-18T01:38:09;101333.19;;;30.81;37.41
74230;BME280;62589;12.568;99.958;2022-12-18T01:40:35;101330.06;;;30.82;37.35
74230;BME280;62589;12.568;99.958;2022-12-18T01:43:02;101313.88;;;30.84;37.38
74230;BME280;62589;12.568;99.958;2022-12-18T01:45:30;101340.78;;;30.84;37.85
74230;BME280;62589;12.568;99.958;2022-12-18T01:48:00;101326.75;;;30.76;36.69
74230;BME280;62589;12.568;99.958;2022-12-18T01:50:36;101325.25;;;30.79;36.98
74230;BME280;62589;12.568;99.958;2022-12-18T01:53:12;101339.19;;;30.83;37.14
74230;BME280;62589;12.568;99.958;2022-12-18T01:55:47;101339.53;;;30.81;36.48
74230;BME280;62589;12.568;99.958;2022-12-18T01:58:15;101325.69;;;30.81;37.17
74230;BME280;62589;12.568;99.958;2022-12-18T02:00:42;101337.84;;;30.76;36.64
74230;BME280;62589;12.568;99.958;2022-12-18T02:03:08;101347.16;;;30.84;36.85
74230;BME280;62589;12.568;99.958;2022-12-18T02:05:49;101348.31;;;30.83;37.24
74230;BME280;62589;12.568;99.958;2022-12-18T02:14:23;101323.88;;;30.89;37.26
74230;BME280;62589;12.568;99.958;2022-12-18T02:17:06;101339.53;;;30.97;37.11
74230;BME280;62589;12.568;99.958;2022-12-18T02:23:00;101342.53;;;31.07;36.80
74230;BME280;62589;12.568;99.958;2022-12-18T02:28:21;101354.13;;;30.94;35.87
74230;BME280;62589;12.568;99.958;2022-12-18T02:30:50;101334.03;;;31.00;37.00
74230;BME280;62589;12.568;99.958;2022-12-18T02:33:20;101330.56;;;31.03;36.26
74230;BME280;62589;12.568;99.958;2022-12-18T02:35:53;101333.59;;;31.14;36.55
74230;BME280;62589;12.568;99.958;2022-12-18T02:38:20;101330.91;;;31.18;36.65
74230;BME280;62589;12.568;99.958;2022-12-18T02:40:49;101342.88;;;31.22;36.26
74230;BME280;62589;12.568;99.958;2022-12-18T02:43:16;101346.53;;;31.26;36.10
74230;BME280;62589;12.568;99.958;2022-12-18T02:45:57;101329.59;;;31.31;35.96
74230;BME280;62589;12.568;99.958;2022-12-18T02:48:29;101327.09;;;31.26;35.60
74230;BME280;62589;12.568;99.958;2022-12-18T02:53:52;101318.66;;;31.38;35.01
74230;BME280;62589;12.568;99.958;2022-12-18T02:56:23;101339.81;;;31.46;35.33
74230;BME280;62589;12.568;99.958;2022-12-18T02:59:03;101312.66;;;31.55;35.30
74230;BME280;62589;12.568;99.958;2022-12-18T03:01:53;101311.72;;;31.67;35.40
74230;BME280;62589;12.568;99.958;2022-12-18T03:07:09;101317.59;;;31.65;34.83
74230;BME280;62589;12.568;99.958;2022-12-18T03:09:42;101310.34;;;31.76;35.56
74230;BME280;62589;12.568;99.958;2022-12-18T03:12:19;101318.41;;;31.85;36.12
74230;BME280;62589;12.568;99.958;2022-12-18T03:15:17;101307.44;;;31.92;35.52
74230;BME280;62589;12.568;99.958;2022-12-18T03:17:48;101320.44;;;31.88;34.80
74230;BME280;62589;12.568;99.958;2022-12-18T03:20:19;101311.19;;;31.81;34.83
74230;BME280;62589;12.568;99.958;2022-12-18T03:22:51;101307.66;;;31.84;34.62
74230;BME280;62589;12.568;99.958;2022-12-18T03:25:20;101316.63;;;31.73;34.20
74230;BME280;62589;12.568;99.958;2022-12-18T03:27:50;101315.38;;;31.71;34.94
74230;BME280;62589;12.568;99.958;2022-12-18T03:30:18;101309.00;;;31.70;35.05
74230;BME280;62589;12.568;99.958;2022-12-18T03:32:57;101305.16;;;31.75;35.23
74230;BME280;62589;12.568;99.958;2022-12-18T03:35:30;101295.41;;;31.65;34.94
74230;BME280;62589;12.568;99.958;2022-12-18T03:37:57;101299.53;;;31.71;34.97
74230;BME280;62589;12.568;99.958;2022-12-18T03:40:41;101290.47;;;31.74;35.04
74230;BME280;62589;12.568;99.958;2022-12-18T03:46:28;101283.00;;;31.79;35.39
74230;BME280;62589;12.568;99.958;2022-12-18T03:49:08;101277.31;;;31.71;34.81
74230;BME280;62589;12.568;99.958;2022-12-18T03:52:00;101275.06;;;31.81;35.10
74230;BME280;62589;12.568;99.958;2022-12-18T03:54:27;101266.38;;;31.82;35.35
74230;BME280;62589;12.568;99.958;2022-12-18T03:56:59;101269.53;;;31.81;35.43
74230;BME280;62589;12.568;99.958;2022-12-18T03:59:27;101271.63;;;31.87;35.41
74230;BME280;62589;12.568;99.958;2022-12-18T04:01:56;101253.81;;;31.88;34.83
74230;BME280;62589;12.568;99.958;2022-12-18T04:04:25;101244.31;;;31.89;34.64
74230;BME280;62589;12.568;99.958;2022-12-18T04:06:54;101237.56;;;31.90;35.32
74230;BME280;62589;12.568;99.958;2022-12-18T04:09:21;101239.13;;;31.88;34.35
74230;BME280;62589;12.568;99.958;2022-12-18T04:11:47;101238.75;;;31.89;35.05
74230;BME280;62589;12.568;99.958;2022-12-18T04:14:14;101216.91;;;31.88;34.48
74230;BME280;62589;12.568;99.958;2022-12-18T04:16:40;101215.28;;;31.87;35.19
74230;BME280;62589;12.568;99.958;2022-12-18T04:19:07;101219.00;;;31.94;34.51
74230;BME280;62589;12.568;99.958;2022-12-18T04:21:33;101214.78;;;32.04;34.77
74230;BME280;62589;12.568;99.958;2022-12-18T04:24:00;101199.25;;;31.99;34.84
74230;BME280;62589;12.568;99.958;2022-12-18T04:26:26;101220.41;;;32.07;34.69
74230;BME280;62589;12.568;99.958;2022-12-18T04:28:52;101213.66;;;32.08;34.41
74230;BME280;62589;12.568;99.958;2022-12-18T04:31:19;101205.84;;;32.14;34.34
74230;BME280;62589;12.568;99.958;2022-12-18T04:33:45;101198.34;;;32.18;34.45
74230;BME280;62589;12.568;99.958;2022-12-18T04:36:11;101196.44;;;32.22;33.83
74230;BME280;62589;12.568;99.958;2022-12-18T04:38:38;101177.44;;;32.24;34.27
74230;BME280;62589;12.568;99.958;2022-12-18T04:41:04;101167.97;;;32.29;34.36
74230;BME280;62589;12.568;99.958;2022-12-18T04:43:31;101165.72;;;32.38;34.27
74230;BME280;62589;12.568;99.958;2022-12-18T04:46:03;101162.16;;;32.37;34.89
74230;BME280;62589;12.568;99.958;2022-12-18T04:48:30;101155.47;;;32.42;34.20
74230;BME280;62589;12.568;99.958;2022-12-18T04:50:56;101157.53;;;32.49;34.66
74230;BME280;62589;12.568;99.958;2022-12-18T04:53:23;101144.91;;;32.55;34.01
74230;BME280;62589;12.568;99.958;2022-12-18T04:55:49;101127.84;;;32.56;34.34
74230;BME280;62589;12.568;99.958;2022-12-18T04:58:16;101130.31;;;32.65;33.46
74230;BME280;62589;12.568;99.958;2022-12-18T05:00:43;101129.94;;;32.66;34.52
74230;BME280;62589;12.568;99.958;2022-12-18T05:03:10;101131.97;;;32.69;34.16
74230;BME280;62589;12.568;99.958;2022-12-18T05:05:36;101125.75;;;32.76;33.92
74230;BME280;62589;12.568;99.958;2022-12-18T05:08:02;101121.47;;;32.82;33.53
74230;BME280;62589;12.568;99.958;2022-12-18T05:10:29;101115.47;;;32.80;33.44
74230;BME280;62589;12.568;99.958;2022-12-18T05:12:55;101109.53;;;32.85;33.54
74230;BME280;62589;12.568;99.958;2022-12-18T05:15:32;101109.53;;;32.85;34.00
74230;BME280;62589;12.568;99.958;2022-12-18T05:17:59;101106.84;;;32.92;33.42
74230;BME280;62589;12.568;99.958;2022-12-18T05:20:26;101094.47;;;32.86;33.09
74230;BME280;62589;12.568;99.958;2022-12-18T05:22:53;101106.44;;;32.90;32.67
74230;BME280;62589;12.568;99.958;2022-12-18T05:25:20;101087.72;;;32.87;32.60
74230;BME280;62589;12.568;99.958;2022-12-18T05:27:47;101075.84;;;32.90;33.90
74230;BME280;62589;12.568;99.958;2022-12-18T05:30:15;101092.94;;;32.92;34.03
74230;BME280;62589;12.568;99.958;2022-12-18T05:32:42;101076.25;;;32.92;33.26
74230;BME280;62589;12.568;99.958;2022-12-18T05:35:10;101064.75;;;32.94;33.82
74230;BME280;62589;12.568;99.958;2022-12-18T05:37:36;101054.38;;;32.91;33.47
74230;BME280;62589;12.568;99.958;2022-12-18T05:40:04;101051.25;;;32.96;33.95
74230;BME280;62589;12.568;99.958;2022-12-18T05:42:31;101046.16;;;33.01;34.17
74230;BME280;62589;12.568;99.958;2022-12-18T05:44:57;101041.03;;;33.07;33.32
74230;BME280;62589;12.568;99.958;2022-12-18T05:47:23;101027.16;;;33.10;32.78
74230;BME280;62589;12.568;99.958;2022-12-18T05:49:50;101023.19;;;33.11;32.56
74230;BME280;62589;12.568;99.958;2022-12-18T05:52:16;101020.09;;;33.20;33.47
74230;BME280;62589;12.568;99.958;2022-12-18T05:54:43;101017.75;;;33.26;33.62
74230;BME280;62589;12.568;99.958;2022-12-18T05:57:09;101010.59;;;33.25;32.63
74230;BME280;62589;12.568;99.958;2022-12-18T05:59:36;100991.19;;;33.32;32.25
74230;BME280;62589;12.568;99.958;2022-12-18T06:02:02;101001.97;;;33.37;32.29
74230;BME280;62589;12.568;99.958;2022-12-18T06:04:29;100993.22;;;33.38;32.48
74230;BME280;62589;12.568;99.958;2022-12-18T06:06:58;100988.06;;;33.40;31.66
74230;BME280;62589;12.568;99.958;2022-12-18T06:09:25;100980.56;;;33.44;32.10
74230;BME280;62589;12.568;99.958;2022-12-18T06:11:51;100989.72;;;33.45;32.99
74230;BME280;62589;12.568;99.958;2022-12-18T06:14:18;100981.75;;;33.47;32.12
74230;BME280;62589;12.568;99.958;2022-12-18T06:16:44;100980.94;;;33.46;31.66
74230;BME280;62589;12.568;99.958;2022-12-18T06:19:14;100966.63;;;33.48;31.17
74230;BME280;62589;12.568;99.958;2022-12-18T06:21:41;100968.22;;;33.49;31.40
74230;BME280;62589;12.568;99.958;2022-12-18T06:24:08;100960.69;;;33.50;32.07
74230;BME280;62589;12.568;99.958;2022-12-18T06:26:37;100946.75;;;33.50;32.02
74230;BME280;62589;12.568;99.958;2022-12-18T06:29:04;100946.00;;;33.56;31.43
74230;BME280;62589;12.568;99.958;2022-12-18T06:31:32;100947.22;;;33.59;31.88
74230;BME280;62589;12.568;99.958;2022-12-18T06:33:58;100946.47;;;33.62;30.91
74230;BME280;62589;12.568;99.958;2022-12-18T06:36:25;100926.19;;;33.68;31.15
74230;BME280;62589;12.568;99.958;2022-12-18T06:38:56;100928.59;;;33.73;31.27
74230;BME280;62589;12.568;99.958;2022-12-18T06:41:23;100927.78;;;33.69;31.38
74230;BME280;62589;12.568;99.958;2022-12-18T06:43:49;100930.59;;;33.76;31.13
74230;BME280;62589;12.568;99.958;2022-12-18T06:46:16;100917.13;;;33.78;32.04
74230;BME280;62589;12.568;99.958;2022-12-18T06:48:42;100918.34;;;33.85;31.75
74230;BME280;62589;12.568;99.958;2022-12-18T06:51:09;100908.00;;;33.85;31.75
74230;BME280;62589;12.568;99.958;2022-12-18T06:53:35;100897.25;;;33.84;31.49
74230;BME280;62589;12.568;99.958;2022-12-18T06:56:04;100891.31;;;33.85;31.24
74230;BME280;62589;12.568;99.958;2022-12-18T06:58:31;100900.88;;;33.95;31.56
74230;BME280;62589;12.568;99.958;2022-12-18T07:01:01;100891.28;;;33.89;31.92
74230;BME280;62589;12.568;99.958;2022-12-18T07:03:28;100876.56;;;33.92;31.83
74230;BME280;62589;12.568;99.958;2022-12-18T07:05:54;100884.53;;;33.93;31.66
74230;BME280;62589;12.568;99.958;2022-12-18T07:08:21;100894.09;;;33.96;32.04
74230;BME280;62589;12.568;99.958;2022-12-18T07:10:47;100878.59;;;33.95;32.63
74230;BME280;62589;12.568;99.958;2022-12-18T07:13:15;100872.59;;;33.93;31.85
74230;BME280;62589;12.568;99.958;2022-12-18T07:15:43;100874.59;;;33.96;32.20
74230;BME280;62589;12.568;99.958;2022-12-18T07:18:09;100871.41;;;33.94;31.75
74230;BME280;62589;12.568;99.958;2022-12-18T07:20:36;100876.97;;;33.94;32.39
74230;BME280;62589;12.568;99.958;2022-12-18T07:23:03;100879.00;;;34.00;32.28
74230;BME280;62589;12.568;99.958;2022-12-18T07:25:35;100868.25;;;33.99;32.32
74230;BME280;62589;12.568;99.958;2022-12-18T07:28:01;100867.06;;;34.00;31.84
74230;BME280;62589;12.568;99.958;2022-12-18T07:30:28;100858.72;;;34.07;31.79
74230;BME280;62589;12.568;99.958;2022-12-18T07:32:54;100869.06;;;34.06;31.42
74230;BME280;62589;12.568;99.958;2022-12-18T07:35:21;100854.34;;;34.06;31.59
74230;BME280;62589;12.568;99.958;2022-12-18T07:37:47;100867.47;;;34.02;31.67
74230;BME280;62589;12.568;99.958;2022-12-18T07:40:13;100852.34;;;34.03;31.67
74230;BME280;62589;12.568;99.958;2022-12-18T07:42:40;100857.13;;;34.06;31.50
74230;BME280;62589;12.568;99.958;2022-12-18T07:45:06;100852.34;;;34.03;31.86
74230;BME280;62589;12.568;99.958;2022-12-18T07:47:36;100851.13;;;33.97;31.66
74230;BME280;62589;12.568;99.958;2022-12-18T07:50:03;100848.34;;;33.97;31.99
74230;BME280;62589;12.568;99.958;2022-12-18T07:52:30;100855.50;;;33.94;30.87
74230;BME280;62589;12.568;99.958;2022-12-18T07:54:57;100846.75;;;33.96;31.07
74230;BME280;62589;12.568;99.958;2022-12-18T07:57:23;100848.34;;;33.97;31.23
74230;BME280;62589;12.568;99.958;2022-12-18T07:59:49;100855.09;;;33.92;30.78
74230;BME280;62589;12.568;99.958;2022-12-18T08:02:16;100849.13;;;33.94;31.25
74230;BME280;62589;12.568;99.958;2022-12-18T08:04:42;100844.75;;;33.93;31.36
74230;BME280;62589;12.568;99.958;2022-12-18T08:07:09;100853.50;;;33.95;31.46
74230;BME280;62589;12.568;99.958;2022-12-18T08:09:35;100842.78;;;33.97;31.07
74230;BME280;62589;12.568;99.958;2022-12-18T08:12:01;100836.41;;;33.96;31.20
74230;BME280;62589;12.568;99.958;2022-12-18T08:14:28;100833.22;;;33.94;31.23
74230;BME280;62589;12.568;99.958;2022-12-18T08:16:54;100836.00;;;33.94;31.62
74230;BME280;62589;12.568;99.958;2022-12-18T08:19:20;100829.63;;;33.94;31.15
74230;BME280;62589;12.568;99.958;2022-12-18T08:21:47;100832.81;;;33.96;31.73
74230;BME280;62589;12.568;99.958;2022-12-18T08:24:14;100842.78;;;33.97;32.16
74230;BME280;62589;12.568;99.958;2022-12-18T08:26:40;100841.97;;;33.93;31.69
74230;BME280;62589;12.568;99.958;2022-12-18T08:29:06;100843.56;;;33.94;31.94
74230;BME280;62589;12.568;99.958;2022-12-18T08:31:33;100836.41;;;33.96;31.38
74230;BME280;62589;12.568;99.958;2022-12-18T08:33:59;100831.22;;;33.95;31.08
74230;BME280;62589;12.568;99.958;2022-12-18T08:36:26;100828.44;;;33.95;31.20
74230;BME280;62589;12.568;99.958;2022-12-18T08:38:52;100826.84;;;33.90;31.31
74230;BME280;62589;12.568;99.958;2022-12-18T08:41:19;100830.41;;;33.84;31.50
74230;BME280;62589;12.568;99.958;2022-12-18T08:43:46;100821.66;;;33.85;31.54
74230;BME280;62589;12.568;99.958;2022-12-18T08:46:26;100818.88;;;33.85;31.10
74230;BME280;62589;12.568;99.958;2022-12-18T08:48:53;100816.50;;;33.84;31.53
74230;BME280;62589;12.568;99.958;2022-12-18T08:51:21;100826.44;;;33.81;31.84
74230;BME280;62589;12.568;99.958;2022-12-18T08:53:48;100833.97;;;33.81;31.88
74230;BME280;62589;12.568;99.958;2022-12-18T08:56:15;100826.78;;;33.76;31.30
74230;BME280;62589;12.568;99.958;2022-12-18T08:58:42;100826.75;;;33.72;31.42
74230;BME280;62589;12.568;99.958;2022-12-18T09:01:10;100825.97;;;33.75;31.84
74230;BME280;62589;12.568;99.958;2022-12-18T09:03:38;100836.28;;;33.71;31.35
74230;BME280;62589;12.568;99.958;2022-12-18T09:06:05;100836.28;;;33.71;31.79
74230;BME280;62589;12.568;99.958;2022-12-18T09:08:31;100835.47;;;33.67;31.22
74230;BME280;62589;12.568;99.958;2022-12-18T09:11:02;100833.91;;;33.66;31.51
74230;BME280;62589;12.568;99.958;2022-12-18T09:13:28;100834.69;;;33.63;32.10
74230;BME280;62589;12.568;99.958;2022-12-18T09:15:55;100831.13;;;33.66;32.25
74230;BME280;62589;12.568;99.958;2022-12-18T09:18:23;100833.50;;;33.61;31.94
74230;BME280;62589;12.568;99.958;2022-12-18T09:20:49;100833.09;;;33.59;31.72
74230;BME280;62589;12.568;99.958;2022-12-18T09:23:18;100846.19;;;33.58;31.74
74230;BME280;62589;12.568;99.958;2022-12-18T09:25:45;100831.47;;;33.58;32.04
74230;BME280;62589;12.568;99.958;2022-12-18T09:28:16;100843.00;;;33.56;31.43
74230;BME280;62589;12.568;99.958;2022-12-18T09:30:46;100828.69;;;33.54;32.11
74230;BME280;62589;12.568;99.958;2022-12-18T09:33:13;100840.19;;;33.53;31.63
74230;BME280;62589;12.568;99.958;2022-12-18T09:35:41;100845.78;;;33.53;31.71
74230;BME280;62589;12.568;99.958;2022-12-18T09:38:12;100847.34;;;33.50;31.55
74230;BME280;62589;12.568;99.958;2022-12-18T09:40:47;100848.53;;;33.49;32.13
74230;BME280;62589;12.568;99.958;2022-12-18T09:43:20;100858.47;;;33.43;32.19
74230;BME280;62589;12.568;99.958;2022-12-18T09:45:55;100841.78;;;33.43;32.33
74230;BME280;62589;12.568;99.958;2022-12-18T09:48:35;100862.44;;;33.42;32.31
74230;BME280;62589;12.568;99.958;2022-12-18T09:51:15;100864.03;;;33.43;32.16
74230;BME280;62589;12.568;99.958;2022-12-18T09:53:50;100859.22;;;33.36;32.65
74230;BME280;62589;12.568;99.958;2022-12-18T09:56:19;100875.53;;;33.38;32.18
74230;BME280;62589;12.568;99.958;2022-12-18T09:58:57;100860.00;;;33.33;32.13
74230;BME280;62589;12.568;99.958;2022-12-18T10:01:25;100856.78;;;33.28;31.86
74230;BME280;62589;12.568;99.958;2022-12-18T10:03:53;100859.09;;;33.19;32.56
74230;BME280;62589;12.568;99.958;2022-12-18T10:09:37;100865.38;;;33.08;32.22
74230;BME280;62589;12.568;99.958;2022-12-18T10:12:24;100864.56;;;33.08;32.89
74230;BME280;62589;12.568;99.958;2022-12-18T10:15:11;100876.09;;;33.06;33.74
74230;BME280;62589;12.568;99.958;2022-12-18T10:21:00;100884.41;;;32.99;33.55
74230;BME280;62589;12.568;99.958;2022-12-18T10:23:39;100886.31;;;32.92;33.70
74230;BME280;62589;12.568;99.958;2022-12-18T10:26:10;100899.41;;;32.88;33.66
74230;BME280;62589;12.568;99.958;2022-12-18T10:28:40;100895.41;;;32.85;34.01
74230;BME280;62589;12.568;99.958;2022-12-18T10:31:23;100901.75;;;32.82;34.36
74230;BME280;62589;12.568;99.958;2022-12-18T10:33:50;100908.50;;;32.81;34.11
74230;BME280;62589;12.568;99.958;2022-12-18T10:36:16;100896.13;;;32.75;34.47
74230;BME280;62589;12.568;99.958;2022-12-18T10:38:43;100898.47;;;32.73;34.95
74230;BME280;62589;12.568;99.958;2022-12-18T10:41:29;100902.00;;;32.70;34.18
74230;BME280;62589;12.568;99.958;2022-12-18T10:44:12;100900.00;;;32.67;34.32
74230;BME280;62589;12.568;99.958;2022-12-18T10:46:41;100906.31;;;32.64;34.26
74230;BME280;62589;12.568;99.958;2022-12-18T10:49:19;100911.03;;;32.56;34.38
74230;BME280;62589;12.568;99.958;2022-12-18T10:51:47;100916.97;;;32.55;34.42
74230;BME280;62589;12.568;99.958;2022-12-18T10:54:21;100920.50;;;32.52;34.66
74230;BME280;62589;12.568;99.958;2022-12-18T10:56:48;100920.56;;;32.55;35.12
74230;BME280;62589;12.568;99.958;2022-12-18T10:59:16;100919.66;;;32.48;35.02
74230;BME280;62589;12.568;99.958;2022-12-18T11:02:07;100920.84;;;32.47;34.85
74230;BME280;62589;12.568;99.958;2022-12-18T11:04:51;100922.41;;;32.40;34.90
74230;BME280;62589;12.568;99.958;2022-12-18T11:07:18;100924.34;;;32.36;35.09
74230;BME280;62589;12.568;99.958;2022-12-18T11:10:00;100927.13;;;32.36;35.62
74230;BME280;62589;12.568;99.958;2022-12-18T11:12:30;100931.44;;;32.34;35.63
74230;BME280;62589;12.568;99.958;2022-12-18T11:14:57;100946.53;;;32.33;35.61
74230;BME280;62589;12.568;99.958;2022-12-18T11:17:32;100950.44;;;32.28;35.63
74230;BME280;62589;12.568;99.958;2022-12-18T11:22:58;100953.63;;;32.30;35.60
74230;BME280;62589;12.568;99.958;2022-12-18T11:25:25;100959.47;;;32.22;34.88
74230;BME280;62589;12.568;99.958;2022-12-18T11:27:56;100965.44;;;32.20;35.00
74230;BME280;62589;12.568;99.958;2022-12-18T11:30:27;100961.41;;;32.18;35.27
74230;BME280;62589;12.568;99.958;2022-12-18T11:33:11;100970.91;;;32.17;36.14
74230;BME280;62589;12.568;99.958;2022-12-18T11:35:55;100975.31;;;32.18;35.94
74230;BME280;62589;12.568;99.958;2022-12-18T11:38:37;100972.47;;;32.14;35.04
74230;BME280;62589;12.568;99.958;2022-12-18T11:41:37;100971.31;;;32.15;36.08
74230;BME280;62589;12.568;99.958;2022-12-18T11:44:21;100973.22;;;32.11;35.30
74230;BME280;62589;12.568;99.958;2022-12-18T11:46:55;100982.75;;;32.10;35.67
74230;BME280;62589;12.568;99.958;2022-12-18T11:49:35;100991.50;;;32.12;35.76
74230;BME280;62589;12.568;99.958;2022-12-18T11:52:09;100994.22;;;32.08;35.04
74230;BME280;62589;12.568;99.958;2022-12-18T11:54:41;101011.25;;;32.07;35.73
74230;BME280;62589;12.568;99.958;2022-12-18T11:57:25;101007.31;;;32.08;35.70
74230;BME280;62589;12.568;99.958;2022-12-18T12:03:16;101018.72;;;31.99;33.56
74230;BME280;62589;12.568;99.958;2022-12-18T12:06:01;101027.00;;;31.96;34.90
74230;BME280;62589;12.568;99.958;2022-12-18T12:11:39;101030.97;;;31.95;35.24
74230;BME280;62589;12.568;99.958;2022-12-18T12:14:32;101036.50;;;31.95;35.06
74230;BME280;62589;12.568;99.958;2022-12-18T12:23:01;101050.66;;;31.86;35.06
74230;BME280;62589;12.568;99.958;2022-12-18T12:28:59;101057.31;;;31.82;34.61
74230;BME280;62589;12.568;99.958;2022-12-18T12:31:50;101063.66;;;31.79;34.67
74230;BME280;62589;12.568;99.958;2022-12-18T12:34:54;101061.25;;;31.77;35.18
74230;BME280;62589;12.568;99.958;2022-12-18T12:40:18;101063.91;;;31.70;34.04
74230;BME280;62589;12.568;99.958;2022-12-18T12:42:54;101070.19;;;31.67;35.26
74230;BME280;62589;12.568;99.958;2022-12-18T12:48:52;101067.44;;;31.67;34.78
74230;BME280;62589;12.568;99.958;2022-12-18T12:51:27;101065.13;;;31.72;34.98
74230;BME280;62589;12.568;99.958;2022-12-18T12:53:56;101061.34;;;31.61;35.54
74230;BME280;62589;12.568;99.958;2022-12-18T12:56:49;101064.91;;;31.58;35.32
74230;BME280;62589;12.568;99.958;2022-12-18T12:59:20;101059.91;;;31.67;34.78
74230;BME280;62589;12.568;99.958;2022-12-18T13:02:00;101063.59;;;31.52;34.99
74230;BME280;62589;12.568;99.958;2022-12-18T13:04:56;101074.28;;;31.50;35.19
74230;BME280;62589;12.568;99.958;2022-12-18T13:07:41;101083.75;;;31.49;35.11
74230;BME280;62589;12.568;99.958;2022-12-18T13:10:32;101083.69;;;31.46;35.71
74230;BME280;62589;12.568;99.958;2022-12-18T13:13:17;101080.13;;;31.45;35.70
74230;BME280;62589;12.568;99.958;2022-12-18T13:15:47;101091.53;;;31.40;35.28
74230;BME280;62589;12.568;99.958;2022-12-18T13:18:22;101100.19;;;31.35;35.28
74230;BME280;62589;12.568;99.958;2022-12-18T13:23:46;101114.44;;;31.33;35.43
74230;BME280;62589;12.568;99.958;2022-12-18T13:26:32;101125.97;;;31.35;35.06
74230;BME280;62589;12.568;99.958;2022-12-18T13:29:02;101123.47;;;31.30;34.51
74230;BME280;62589;12.568;99.958;2022-12-18T13:34:33;101154.81;;;31.31;35.51
74230;BME280;62589;12.568;99.958;2022-12-18T13:39:49;101158.31;;;31.28;35.64
74230;BME280;62589;12.568;99.958;2022-12-18T13:42:37;101160.72;;;31.29;35.75
74230;BME280;62589;12.568;99.958;2022-12-18T13:48:16;101157.44;;;31.24;35.69
74230;BME280;62589;12.568;99.958;2022-12-18T13:50:43;101159.03;;;31.25;35.62
74230;BME280;62589;12.568;99.958;2022-12-18T13:53:21;101157.81;;;31.22;35.04
74230;BME280;62589;12.568;99.958;2022-12-18T13:55:50;101164.53;;;31.21;35.67
74230;BME280;62589;12.568;99.958;2022-12-18T13:58:16;101158.13;;;31.17;34.77
74230;BME280;62589;12.568;99.958;2022-12-18T14:00:43;101157.31;;;31.17;35.06
74230;BME280;62589;12.568;99.958;2022-12-18T14:03:22;101168.81;;;31.19;35.45